sensor_id;sensor_type;location;lat;lon;timestamp;pressure;altitude;pressure_sealevel;temperature;humidity
32492;BME280;20605;49.742;18.802;2023-06-14T00:02:06;97671.52;;;8.12;100.00
32492;BME280;20605;49.742;18.802;2023-06-14T00:04:34;97669.97;;;8.04;100.00
32492;BME280;20605;49.742;18.802;2023-06-14T00:07:01;97670.50;;;7.97;100.00
32492;BME280;20605;49.742;18.802;2023-06-14T00:09:27;97671.79;;;7.93;100.00
32492;BME280;20605;49.742;18.802;2023-06-14T00:11:52;97669.23;;;7.91;100.00
32492;BME280;20605;49.742;18.802;2023-06-14T00:14:18;97672.20;;;7.90;100.00
32492;BME280;20605;49.742;18.802;2023-06-14T00:16:44;97669.61;;;7.90;100.00
32492;BME280;20605;49.742;18.802;2023-06-14T00:19:09;97674.47;;;7.89;100.00
32492;BME280;20605;49.742;18.802;2023-06-14T00:21:37;97676.98;;;7.85;100.00
32492;BME280;20605;49.742;18.802;2023-06-14T00:24:04;97677.90;;;7.82;100.00
32492;BME280;20605;49.742;18.802;2023-06-14T00:26:30;97671.91;;;7.74;100.00
32492;BME280;20605;49.742;18.802;2023-06-14T00:28:56;97668.77;;;7.67;100.00
32492;BME280;20605;49.742;18.802;2023-06-14T00:31:26;97668.55;;;7.61;100.00
32492;BME280;20605;49.742;18.802;2023-06-14T00:33:53;97674.05;;;7.55;100.00
32492;BME280;20605;49.742;18.802;2023-06-14T00:36:19;97676.80;;;7.48;100.00
32492;BME280;20605;49.742;18.802;2023-06-14T00:38:44;97671.85;;;7.45;100.00
32492;BME280;20605;49.742;18.802;2023-06-14T00:41:10;97672.11;;;7.49;100.00
32492;BME280;20605;49.742;18.802;2023-06-14T00:43:35;97671.90;;;7.50;100.00
32492;BME280;20605;49.742;18.802;2023-06-14T00:46:01;97667.77;;;7.50;100.00
32492;BME280;20605;49.742;18.802;2023-06-14T00:48:28;97663.61;;;7.50;100.00
32492;BME280;20605;49.742;18.802;2023-06-14T00:50:54;97669.85;;;7.49;100.00
32492;BME280;20605;49.742;18.802;2023-06-14T00:53:20;97668.95;;;7.43;100.00
32492;BME280;20605;49.742;18.802;2023-06-14T00:55:48;97666.18;;;7.36;100.00
32492;BME280;20605;49.742;18.802;2023-06-14T00:58:15;97671.48;;;7.29;100.00
32492;BME280;20605;49.742;18.802;2023-06-14T01:00:42;97670.11;;;7.21;100.00
32492;BME280;20605;49.742;18.802;2023-06-14T01:03:07;97670.67;;;7.18;100.00
32492;BME280;20605;49.742;18.802;2023-06-14T01:05:38;97670.20;;;7.16;100.00
32492;BME280;20605;49.742;18.802;2023-06-14T01:08:17;97668.04;;;7.13;100.00
32492;BME280;20605;49.742;18.802;2023-06-14T01:11:09;97670.58;;;7.06;100.00
32492;BME280;20605;49.742;18.802;2023-06-14T01:13:39;97671.19;;;7.02;100.00
32492;BME280;20605;49.742;18.802;2023-06-14T01:16:08;97670.55;;;6.99;100.00
32492;BME280;20605;49.742;18.802;2023-06-14T01:18:34;97670.02;;;7.00;100.00
32492;BME280;20605;49.742;18.802;2023-06-14T01:21:01;97673.79;;;7.01;100.00
32492;BME280;20605;49.742;18.802;2023-06-14T01:23:31;97674.30;;;7.01;100.00
32492;BME280;20605;49.742;18.802;2023-06-14T01:26:01;97672.88;;;7.03;100.00
32492;BME280;20605;49.742;18.802;2023-06-14T01:28:31;97671.99;;;7.04;100.00
32492;BME280;20605;49.742;18.802;2023-06-14T01:31:01;97669.26;;;7.04;100.00
32492;BME280;20605;49.742;18.802;2023-06-14T01:33:33;97668.62;;;7.01;100.00
32492;BME280;20605;49.742;18.802;2023-06-14T01:36:02;97667.10;;;6.99;100.00
32492;BME280;20605;49.742;18.802;2023-06-14T01:38:30;97670.02;;;6.99;100.00
32492;BME280;20605;49.742;18.802;2023-06-14T01:40:58;97668.93;;;7.02;100.00
32492;BME280;20605;49.742;18.802;2023-06-14T01:43:25;97675.27;;;7.05;100.00
32492;BME280;20605;49.742;18.802;2023-06-14T01:45:53;97672.50;;;7.05;100.00
32492;BME280;20605;49.742;18.802;2023-06-14T01:48:21;97670.61;;;7.05;100.00
32492;BME280;20605;49.742;18.802;2023-06-14T01:50:48;97671.23;;;7.09;100.00
32492;BME280;20605;49.742;18.802;2023-06-14T01:53:15;97674.31;;;7.09;100.00
32492;BME280;20605;49.742;18.802;2023-06-14T01:55:41;97676.78;;;7.07;100.00
32492;BME280;20605;49.742;18.802;2023-06-14T01:58:10;97673.27;;;7.01;100.00
32492;BME280;20605;49.742;18.802;2023-06-14T02:00:36;97671.98;;;6.96;100.00
32492;BME280;20605;49.742;18.802;2023-06-14T02:03:02;97673.34;;;6.88;100.00
32492;BME280;20605;49.742;18.802;2023-06-14T02:05:30;97670.00;;;6.83;100.00
32492;BME280;20605;49.742;18.802;2023-06-14T02:07:56;97668.14;;;6.80;100.00
32492;BME280;20605;49.742;18.802;2023-06-14T02:10:21;97673.08;;;6.75;100.00
32492;BME280;20605;49.742;18.802;2023-06-14T02:12:47;97673.05;;;6.67;100.00
32492;BME280;20605;49.742;18.802;2023-06-14T02:15:13;97669.46;;;6.65;100.00
32492;BME280;20605;49.742;18.802;2023-06-14T02:17:45;97666.77;;;6.61;100.00
32492;BME280;20605;49.742;18.802;2023-06-14T02:20:13;97667.30;;;6.60;100.00
32492;BME280;20605;49.742;18.802;2023-06-14T02:22:39;97667.46;;;6.61;100.00
32492;BME280;20605;49.742;18.802;2023-06-14T02:25:07;97667.95;;;6.63;100.00
32492;BME280;20605;49.742;18.802;2023-06-14T02:27:33;97668.15;;;6.61;100.00
32492;BME280;20605;49.742;18.802;2023-06-14T02:29:59;97665.23;;;6.61;100.00
32492;BME280;20605;49.742;18.802;2023-06-14T02:32:26;97667.55;;;6.66;100.00
32492;BME280;20605;49.742;18.802;2023-06-14T02:34:53;97666.20;;;6.64;100.00
32492;BME280;20605;49.742;18.802;2023-06-14T02:37:19;97668.97;;;6.54;100.00
32492;BME280;20605;49.742;18.802;2023-06-14T02:39:45;97663.80;;;6.46;100.00
32492;BME280;20605;49.742;18.802;2023-06-14T02:42:11;97659.59;;;6.40;100.00
32492;BME280;20605;49.742;18.802;2023-06-14T02:44:37;97661.70;;;6.38;100.00
32492;BME280;20605;49.742;18.802;2023-06-14T02:47:03;97667.28;;;6.34;100.00
32492;BME280;20605;49.742;18.802;2023-06-14T02:49:30;97664.07;;;6.31;100.00
32492;BME280;20605;49.742;18.802;2023-06-14T02:51:56;97662.84;;;6.32;100.00
32492;BME280;20605;49.742;18.802;2023-06-14T02:54:22;97663.37;;;6.31;100.00
32492;BME280;20605;49.742;18.802;2023-06-14T02:56:48;97665.45;;;6.31;100.00
32492;BME280;20605;49.742;18.802;2023-06-14T02:59:14;97667.20;;;6.39;100.00
32492;BME280;20605;49.742;18.802;2023-06-14T03:01:41;97666.00;;;6.48;100.00
32492;BME280;20605;49.742;18.802;2023-06-14T03:04:09;97666.92;;;6.53;100.00
32492;BME280;20605;49.742;18.802;2023-06-14T03:06:37;97666.47;;;6.59;100.00
32492;BME280;20605;49.742;18.802;2023-06-14T03:09:03;97669.08;;;6.68;100.00
32492;BME280;20605;49.742;18.802;2023-06-14T03:11:35;97669.90;;;6.79;100.00
32492;BME280;20605;49.742;18.802;2023-06-14T03:14:01;97670.27;;;6.86;100.00
32492;BME280;20605;49.742;18.802;2023-06-14T03:16:29;97679.21;;;6.88;100.00
32492;BME280;20605;49.742;18.802;2023-06-14T03:18:57;97677.80;;;6.91;100.00
32492;BME280;20605;49.742;18.802;2023-06-14T03:21:25;97678.42;;;6.93;100.00
32492;BME280;20605;49.742;18.802;2023-06-14T03:23:52;97675.27;;;6.97;100.00
32492;BME280;20605;49.742;18.802;2023-06-14T03:26:18;97680.30;;;6.95;100.00
32492;BME280;20605;49.742;18.802;2023-06-14T03:28:45;97678.46;;;6.91;100.00
32492;BME280;20605;49.742;18.802;2023-06-14T03:31:14;97676.50;;;6.95;100.00
32492;BME280;20605;49.742;18.802;2023-06-14T03:33:40;97676.80;;;7.06;100.00
32492;BME280;20605;49.742;18.802;2023-06-14T03:36:07;97675.41;;;7.15;100.00
32492;BME280;20605;49.742;18.802;2023-06-14T03:38:33;97676.69;;;7.20;100.00
32492;BME280;20605;49.742;18.802;2023-06-14T03:40:59;97680.60;;;7.23;100.00
32492;BME280;20605;49.742;18.802;2023-06-14T03:43:24;97681.08;;;7.33;100.00
32492;BME280;20605;49.742;18.802;2023-06-14T03:45:51;97686.52;;;7.54;100.00
32492;BME280;20605;49.742;18.802;2023-06-14T03:48:17;97687.92;;;7.76;100.00
32492;BME280;20605;49.742;18.802;2023-06-14T03:50:42;97693.63;;;7.90;100.00
32492;BME280;20605;49.742;18.802;2023-06-14T03:53:10;97695.64;;;8.01;100.00
32492;BME280;20605;49.742;18.802;2023-06-14T03:55:37;97688.52;;;8.10;100.00
32492;BME280;20605;49.742;18.802;2023-06-14T03:58:04;97689.21;;;8.31;100.00
32492;BME280;20605;49.742;18.802;2023-06-14T04:00:31;97689.73;;;8.60;100.00
32492;BME280;20605;49.742;18.802;2023-06-14T04:02:57;97690.70;;;8.95;100.00
32492;BME280;20605;49.742;18.802;2023-06-14T04:05:23;97693.28;;;9.26;100.00
32492;BME280;20605;49.742;18.802;2023-06-14T04:07:54;97697.88;;;9.47;100.00
32492;BME280;20605;49.742;18.802;2023-06-14T04:10:21;97700.38;;;9.80;100.00
32492;BME280;20605;49.742;18.802;2023-06-14T04:12:47;97702.77;;;10.26;100.00
32492;BME280;20605;49.742;18.802;2023-06-14T04:15:13;97700.04;;;10.66;100.00
32492;BME280;20605;49.742;18.802;2023-06-14T04:17:39;97703.67;;;10.92;100.00
32492;BME280;20605;49.742;18.802;2023-06-14T04:20:06;97708.42;;;11.10;100.00
32492;BME280;20605;49.742;18.802;2023-06-14T04:22:34;97708.68;;;11.37;100.00
32492;BME280;20605;49.742;18.802;2023-06-14T04:25:00;97707.61;;;11.57;100.00
32492;BME280;20605;49.742;18.802;2023-06-14T04:27:26;97709.42;;;11.73;100.00
32492;BME280;20605;49.742;18.802;2023-06-14T04:29:53;97704.56;;;12.05;100.00
32492;BME280;20605;49.742;18.802;2023-06-14T04:32:24;97704.52;;;12.45;100.00
32492;BME280;20605;49.742;18.802;2023-06-14T04:34:55;97698.48;;;12.77;100.00
32492;BME280;20605;49.742;18.802;2023-06-14T04:37:24;97695.61;;;12.83;100.00
32492;BME280;20605;49.742;18.802;2023-06-14T04:39:50;97698.02;;;12.91;100.00
32492;BME280;20605;49.742;18.802;2023-06-14T04:42:18;97700.45;;;13.16;100.00
32492;BME280;20605;49.742;18.802;2023-06-14T04:44:46;97697.92;;;13.61;100.00
32492;BME280;20605;49.742;18.802;2023-06-14T04:47:13;97702.67;;;13.98;100.00
32492;BME280;20605;49.742;18.802;2023-06-14T04:49:41;97695.67;;;14.35;100.00
32492;BME280;20605;49.742;18.802;2023-06-14T04:52:07;97694.51;;;14.76;100.00
32492;BME280;20605;49.742;18.802;2023-06-14T04:54:42;97699.98;;;15.16;100.00
32492;BME280;20605;49.742;18.802;2023-06-14T04:57:10;97697.55;;;15.59;100.00
32492;BME280;20605;49.742;18.802;2023-06-14T04:59:40;97700.84;;;15.82;100.00
32492;BME280;20605;49.742;18.802;2023-06-14T05:02:07;97699.00;;;15.93;100.00
32492;BME280;20605;49.742;18.802;2023-06-14T05:04:34;97698.52;;;16.15;100.00
32492;BME280;20605;49.742;18.802;2023-06-14T05:07:00;97690.73;;;16.38;100.00
32492;BME280;20605;49.742;18.802;2023-06-14T05:09:28;97689.42;;;16.49;100.00
32492;BME280;20605;49.742;18.802;2023-06-14T05:11:54;97690.80;;;16.61;100.00
32492;BME280;20605;49.742;18.802;2023-06-14T05:14:20;97690.79;;;16.83;100.00
32492;BME280;20605;49.742;18.802;2023-06-14T05:16:49;97696.88;;;17.16;100.00
32492;BME280;20605;49.742;18.802;2023-06-14T05:19:16;97699.66;;;17.45;100.00
32492;BME280;20605;49.742;18.802;2023-06-14T05:21:43;97704.26;;;17.65;100.00
32492;BME280;20605;49.742;18.802;2023-06-14T05:24:09;97705.20;;;17.84;100.00
32492;BME280;20605;49.742;18.802;2023-06-14T05:26:35;97706.59;;;18.01;100.00
32492;BME280;20605;49.742;18.802;2023-06-14T05:29:01;97709.98;;;17.89;100.00
32492;BME280;20605;49.742;18.802;2023-06-14T05:31:28;97711.48;;;17.39;100.00
32492;BME280;20605;49.742;18.802;2023-06-14T05:33:55;97711.57;;;17.51;100.00
32492;BME280;20605;49.742;18.802;2023-06-14T05:36:21;97714.08;;;17.62;100.00
32492;BME280;20605;49.742;18.802;2023-06-14T05:38:47;97712.30;;;17.77;100.00
32492;BME280;20605;49.742;18.802;2023-06-14T05:41:13;97709.72;;;17.74;100.00
32492;BME280;20605;49.742;18.802;2023-06-14T05:43:39;97711.61;;;18.02;100.00
32492;BME280;20605;49.742;18.802;2023-06-14T05:46:05;97713.21;;;18.45;100.00
32492;BME280;20605;49.742;18.802;2023-06-14T05:48:31;97707.21;;;18.56;100.00
32492;BME280;20605;49.742;18.802;2023-06-14T05:50:58;97709.45;;;18.68;100.00
32492;BME280;20605;49.742;18.802;2023-06-14T05:53:24;97709.50;;;18.96;100.00
32492;BME280;20605;49.742;18.802;2023-06-14T05:55:50;97712.15;;;19.35;99.80
32492;BME280;20605;49.742;18.802;2023-06-14T05:58:19;97711.69;;;19.54;99.30
32492;BME280;20605;49.742;18.802;2023-06-14T06:00:45;97713.80;;;19.70;98.46
32492;BME280;20605;49.742;18.802;2023-06-14T06:03:11;97715.75;;;20.17;98.89
32492;BME280;20605;49.742;18.802;2023-06-14T06:05:39;97709.23;;;20.67;97.15
32492;BME280;20605;49.742;18.802;2023-06-14T06:08:05;97711.35;;;20.79;95.91
32492;BME280;20605;49.742;18.802;2023-06-14T06:10:31;97714.09;;;20.61;95.35
32492;BME280;20605;49.742;18.802;2023-06-14T06:12:57;97716.00;;;20.40;95.11
32492;BME280;20605;49.742;18.802;2023-06-14T06:15:22;97719.83;;;20.26;94.96
32492;BME280;20605;49.742;18.802;2023-06-14T06:17:48;97718.81;;;19.98;94.16
32492;BME280;20605;49.742;18.802;2023-06-14T06:20:14;97719.27;;;19.87;94.63
32492;BME280;20605;49.742;18.802;2023-06-14T06:22:39;97721.00;;;19.72;94.60
32492;BME280;20605;49.742;18.802;2023-06-14T06:25:05;97718.81;;;19.84;94.85
32492;BME280;20605;49.742;18.802;2023-06-14T06:27:32;97719.61;;;19.82;93.79
32492;BME280;20605;49.742;18.802;2023-06-14T06:29:57;97726.44;;;19.63;93.97
32492;BME280;20605;49.742;18.802;2023-06-14T06:32:23;97726.25;;;19.85;94.21
32492;BME280;20605;49.742;18.802;2023-06-14T06:34:49;97726.98;;;19.90;94.15
32492;BME280;20605;49.742;18.802;2023-06-14T06:37:15;97727.52;;;19.97;93.35
32492;BME280;20605;49.742;18.802;2023-06-14T06:39:41;97730.75;;;19.72;93.27
32492;BME280;20605;49.742;18.802;2023-06-14T06:42:06;97735.61;;;19.63;93.89
32492;BME280;20605;49.742;18.802;2023-06-14T06:44:34;97738.61;;;19.85;94.30
32492;BME280;20605;49.742;18.802;2023-06-14T06:47:00;97737.38;;;20.17;94.61
32492;BME280;20605;49.742;18.802;2023-06-14T06:49:26;97741.45;;;20.17;93.26
32492;BME280;20605;49.742;18.802;2023-06-14T06:52:06;97746.00;;;19.96;93.33
32492;BME280;20605;49.742;18.802;2023-06-14T06:54:32;97752.52;;;19.70;92.91
32492;BME280;20605;49.742;18.802;2023-06-14T06:56:58;97748.06;;;19.51;93.95
32492;BME280;20605;49.742;18.802;2023-06-14T06:59:24;97747.05;;;19.70;94.64
32492;BME280;20605;49.742;18.802;2023-06-14T07:01:50;97742.58;;;20.41;94.91
32492;BME280;20605;49.742;18.802;2023-06-14T07:04:16;97742.23;;;21.07;94.62
32492;BME280;20605;49.742;18.802;2023-06-14T07:06:43;97743.40;;;21.91;93.41
32492;BME280;20605;49.742;18.802;2023-06-14T07:09:09;97744.33;;;21.99;90.54
32492;BME280;20605;49.742;18.802;2023-06-14T07:11:39;97746.69;;;21.30;90.64
32492;BME280;20605;49.742;18.802;2023-06-14T07:14:05;97753.01;;;20.70;91.38
32492;BME280;20605;49.742;18.802;2023-06-14T07:16:31;97756.36;;;20.16;91.47
32492;BME280;20605;49.742;18.802;2023-06-14T07:18:57;97755.76;;;19.41;92.48
32492;BME280;20605;49.742;18.802;2023-06-14T07:21:22;97758.70;;;18.79;94.04
32492;BME280;20605;49.742;18.802;2023-06-14T07:23:48;97757.09;;;18.22;95.28
32492;BME280;20605;49.742;18.802;2023-06-14T07:26:14;97757.64;;;17.70;96.69
32492;BME280;20605;49.742;18.802;2023-06-14T07:28:39;97758.91;;;17.29;98.61
32492;BME280;20605;49.742;18.802;2023-06-14T07:31:05;97763.70;;;17.04;99.42
32492;BME280;20605;49.742;18.802;2023-06-14T07:33:31;97762.80;;;16.81;99.95
32492;BME280;20605;49.742;18.802;2023-06-14T07:35:56;97764.95;;;16.68;100.00
32492;BME280;20605;49.742;18.802;2023-06-14T07:38:22;97770.73;;;16.58;100.00
32492;BME280;20605;49.742;18.802;2023-06-14T07:40:48;97766.62;;;16.50;100.00
32492;BME280;20605;49.742;18.802;2023-06-14T07:43:13;97765.84;;;16.58;100.00
32492;BME280;20605;49.742;18.802;2023-06-14T07:45:39;97766.54;;;16.52;100.00
32492;BME280;20605;49.742;18.802;2023-06-14T07:48:05;97769.27;;;16.44;100.00
32492;BME280;20605;49.742;18.802;2023-06-14T07:50:31;97771.79;;;16.46;100.00
32492;BME280;20605;49.742;18.802;2023-06-14T07:52:56;97770.02;;;16.49;100.00
32492;BME280;20605;49.742;18.802;2023-06-14T07:55:22;97770.17;;;16.50;100.00
32492;BME280;20605;49.742;18.802;2023-06-14T07:57:48;97768.70;;;16.64;100.00
32492;BME280;20605;49.742;18.802;2023-06-14T08:00:14;97762.82;;;16.81;100.00
32492;BME280;20605;49.742;18.802;2023-06-14T08:02:42;97764.14;;;16.88;100.00
32492;BME280;20605;49.742;18.802;2023-06-14T08:05:10;97770.16;;;17.05;100.00
32492;BME280;20605;49.742;18.802;2023-06-14T08:07:37;97764.67;;;17.50;100.00
32492;BME280;20605;49.742;18.802;2023-06-14T08:10:04;97770.62;;;18.44;100.00
32492;BME280;20605;49.742;18.802;2023-06-14T08:12:30;97763.35;;;19.28;100.00
32492;BME280;20605;49.742;18.802;2023-06-14T08:14:56;97762.95;;;19.70;99.82
32492;BME280;20605;49.742;18.802;2023-06-14T08:17:21;97764.08;;;20.11;99.54
32492;BME280;20605;49.742;18.802;2023-06-14T08:19:47;97759.41;;;20.71;98.79
32492;BME280;20605;49.742;18.802;2023-06-14T08:22:13;97761.23;;;21.66;97.41
32492;BME280;20605;49.742;18.802;2023-06-14T08:24:38;97759.59;;;22.74;93.83
32492;BME280;20605;49.742;18.802;2023-06-14T08:27:07;97759.13;;;23.60;91.74
32492;BME280;20605;49.742;18.802;2023-06-14T08:29:33;97763.13;;;23.87;89.65
32492;BME280;20605;49.742;18.802;2023-06-14T08:31:58;97764.64;;;23.59;87.99
32492;BME280;20605;49.742;18.802;2023-06-14T08:34:24;97763.97;;;23.13;87.56
32492;BME280;20605;49.742;18.802;2023-06-14T08:36:50;97767.30;;;22.70;87.06
32492;BME280;20605;49.742;18.802;2023-06-14T08:39:16;97768.63;;;22.14;86.79
32492;BME280;20605;49.742;18.802;2023-06-14T08:41:45;97767.50;;;21.75;87.91
32492;BME280;20605;49.742;18.802;2023-06-14T08:44:12;97768.41;;;21.47;88.27
32492;BME280;20605;49.742;18.802;2023-06-14T08:46:38;97763.83;;;21.18;88.00
32492;BME280;20605;49.742;18.802;2023-06-14T08:49:04;97768.10;;;20.80;88.04
32492;BME280;20605;49.742;18.802;2023-06-14T08:51:35;97769.56;;;20.51;87.66
32492;BME280;20605;49.742;18.802;2023-06-14T08:54:02;97764.58;;;20.09;87.87
32492;BME280;20605;49.742;18.802;2023-06-14T08:56:30;97767.36;;;19.90;89.17
32492;BME280;20605;49.742;18.802;2023-06-14T08:58:58;97768.66;;;19.94;89.44
32492;BME280;20605;49.742;18.802;2023-06-14T09:01:26;97766.83;;;20.00;89.29
32492;BME280;20605;49.742;18.802;2023-06-14T09:03:52;97771.33;;;20.01;89.58
32492;BME280;20605;49.742;18.802;2023-06-14T09:06:21;97772.46;;;20.20;89.57
32492;BME280;20605;49.742;18.802;2023-06-14T09:08:48;97771.35;;;20.33;88.98
32492;BME280;20605;49.742;18.802;2023-06-14T09:11:16;97771.36;;;20.43;89.29
32492;BME280;20605;49.742;18.802;2023-06-14T09:13:45;97776.69;;;20.45;88.80
32492;BME280;20605;49.742;18.802;2023-06-14T09:16:11;97778.93;;;20.41;88.01
32492;BME280;20605;49.742;18.802;2023-06-14T09:21:08;97772.45;;;20.32;88.51
32492;BME280;20605;49.742;18.802;2023-06-14T09:23:40;97768.71;;;20.25;88.34
32492;BME280;20605;49.742;18.802;2023-06-14T09:26:11;97766.33;;;20.56;88.72
32492;BME280;20605;49.742;18.802;2023-06-14T09:28:47;97762.80;;;21.06;87.70
32492;BME280;20605;49.742;18.802;2023-06-14T09:31:15;97768.35;;;21.22;87.49
32492;BME280;20605;49.742;18.802;2023-06-14T09:33:43;97763.85;;;21.44;87.48
32492;BME280;20605;49.742;18.802;2023-06-14T09:36:16;97765.14;;;21.32;87.46
32492;BME280;20605;49.742;18.802;2023-06-14T09:38:55;97765.59;;;21.02;88.28
32492;BME280;20605;49.742;18.802;2023-06-14T09:41:37;97769.00;;;20.87;89.28
32492;BME280;20605;49.742;18.802;2023-06-14T09:44:04;97771.41;;;20.64;88.79
32492;BME280;20605;49.742;18.802;2023-06-14T09:46:31;97776.31;;;20.33;89.36
32492;BME280;20605;49.742;18.802;2023-06-14T09:49:00;97775.31;;;20.39;90.18
32492;BME280;20605;49.742;18.802;2023-06-14T09:51:28;97771.53;;;20.35;90.25
32492;BME280;20605;49.742;18.802;2023-06-14T09:53:59;97778.78;;;20.18;89.71
32492;BME280;20605;49.742;18.802;2023-06-14T09:56:30;97776.84;;;20.08;89.93
32492;BME280;20605;49.742;18.802;2023-06-14T09:58:57;97775.61;;;20.03;89.90
32492;BME280;20605;49.742;18.802;2023-06-14T10:01:30;97779.30;;;19.93;90.44
32492;BME280;20605;49.742;18.802;2023-06-14T10:04:06;97778.44;;;20.10;91.14
32492;BME280;20605;49.742;18.802;2023-06-14T10:06:36;97781.66;;;20.17;90.48
32492;BME280;20605;49.742;18.802;2023-06-14T10:09:04;97773.64;;;20.36;90.68
32492;BME280;20605;49.742;18.802;2023-06-14T10:11:31;97774.77;;;20.57;90.86
32492;BME280;20605;49.742;18.802;2023-06-14T10:13:58;97774.45;;;20.54;90.24
32492;BME280;20605;49.742;18.802;2023-06-14T10:16:34;97773.84;;;20.40;90.33
32492;BME280;20605;49.742;18.802;2023-06-14T10:22:09;97773.40;;;19.86;91.64
32492;BME280;20605;49.742;18.802;2023-06-14T10:24:43;97769.50;;;19.69;92.81
32492;BME280;20605;49.742;18.802;2023-06-14T10:27:13;97768.30;;;19.48;93.24
32492;BME280;20605;49.742;18.802;2023-06-14T10:32:24;97764.70;;;19.15;94.49
32492;BME280;20605;49.742;18.802;2023-06-14T10:34:56;97760.73;;;19.04;95.00
32492;BME280;20605;49.742;18.802;2023-06-14T10:37:22;97764.48;;;18.82;95.77
32492;BME280;20605;49.742;18.802;2023-06-14T10:39:47;97762.39;;;18.62;96.28
32492;BME280;20605;49.742;18.802;2023-06-14T10:42:14;97759.55;;;18.51;97.57
32492;BME280;20605;49.742;18.802;2023-06-14T10:44:46;97758.81;;;18.47;98.12
32492;BME280;20605;49.742;18.802;2023-06-14T10:47:34;97759.85;;;18.49;98.39
32492;BME280;20605;49.742;18.802;2023-06-14T10:50:08;97762.05;;;18.45;98.36
32492;BME280;20605;49.742;18.802;2023-06-14T10:52:39;97758.63;;;18.55;98.87
32492;BME280;20605;49.742;18.802;2023-06-14T10:55:12;97755.95;;;18.94;99.38
32492;BME280;20605;49.742;18.802;2023-06-14T10:57:46;97749.69;;;19.37;99.11
32492;BME280;20605;49.742;18.802;2023-06-14T11:00:21;97748.22;;;19.81;98.49
32492;BME280;20605;49.742;18.802;2023-06-14T11:05:30;97752.11;;;20.53;96.89
32492;BME280;20605;49.742;18.802;2023-06-14T11:08:27;97748.77;;;20.69;95.62
32492;BME280;20605;49.742;18.802;2023-06-14T11:11:00;97752.39;;;20.66;94.85
32492;BME280;20605;49.742;18.802;2023-06-14T11:13:27;97746.34;;;20.64;95.12
32492;BME280;20605;49.742;18.802;2023-06-14T11:15:54;97749.69;;;20.45;94.26
32492;BME280;20605;49.742;18.802;2023-06-14T11:18:22;97757.27;;;20.18;94.44
32492;BME280;20605;49.742;18.802;2023-06-14T11:20:53;97759.55;;;20.08;95.01
32492;BME280;20605;49.742;18.802;2023-06-14T11:23:18;97761.75;;;20.07;95.01
32492;BME280;20605;49.742;18.802;2023-06-14T11:25:50;97758.61;;;20.21;95.67
32492;BME280;20605;49.742;18.802;2023-06-14T11:28:16;97756.39;;;20.50;94.77
32492;BME280;20605;49.742;18.802;2023-06-14T11:30:42;97752.16;;;20.67;94.70
32492;BME280;20605;49.742;18.802;2023-06-14T11:33:10;97745.66;;;20.66;93.93
32492;BME280;20605;49.742;18.802;2023-06-14T11:35:36;97749.22;;;20.49;93.58
32492;BME280;20605;49.742;18.802;2023-06-14T11:38:02;97748.98;;;20.35;93.59
32492;BME280;20605;49.742;18.802;2023-06-14T11:40:28;97747.27;;;20.29;93.30
32492;BME280;20605;49.742;18.802;2023-06-14T11:43:01;97740.33;;;20.40;92.55
32492;BME280;20605;49.742;18.802;2023-06-14T11:45:28;97737.00;;;20.62;93.37
32492;BME280;20605;49.742;18.802;2023-06-14T11:47:55;97733.55;;;20.84;92.48
32492;BME280;20605;49.742;18.802;2023-06-14T11:50:22;97732.80;;;21.06;91.55
32492;BME280;20605;49.742;18.802;2023-06-14T11:52:59;97730.20;;;21.36;91.59
32492;BME280;20605;49.742;18.802;2023-06-14T11:55:38;97733.58;;;21.70;92.27
32492;BME280;20605;49.742;18.802;2023-06-14T11:58:06;97734.05;;;22.02;90.00
32492;BME280;20605;49.742;18.802;2023-06-14T12:00:32;97733.71;;;21.88;89.38
32492;BME280;20605;49.742;18.802;2023-06-14T12:03:00;97730.64;;;21.55;88.37
32492;BME280;20605;49.742;18.802;2023-06-14T12:05:27;97731.59;;;21.15;89.00
32492;BME280;20605;49.742;18.802;2023-06-14T12:08:00;97731.48;;;20.86;89.34
32492;BME280;20605;49.742;18.802;2023-06-14T12:10:27;97729.54;;;20.58;89.51
32492;BME280;20605;49.742;18.802;2023-06-14T12:12:57;97728.73;;;20.54;90.54
32492;BME280;20605;49.742;18.802;2023-06-14T12:15:24;97720.27;;;20.59;90.30
32492;BME280;20605;49.742;18.802;2023-06-14T12:17:49;97720.48;;;20.70;88.58
32492;BME280;20605;49.742;18.802;2023-06-14T12:20:16;97716.10;;;20.84;89.44
32492;BME280;20605;49.742;18.802;2023-06-14T12:22:56;97714.20;;;21.14;88.57
32492;BME280;20605;49.742;18.802;2023-06-14T12:25:33;97712.21;;;21.45;88.19
32492;BME280;20605;49.742;18.802;2023-06-14T12:28:05;97713.05;;;21.61;87.11
32492;BME280;20605;49.742;18.802;2023-06-14T12:30:32;97708.64;;;21.61;86.49
32492;BME280;20605;49.742;18.802;2023-06-14T12:32:58;97710.52;;;21.66;85.88
32492;BME280;20605;49.742;18.802;2023-06-14T12:35:23;97707.75;;;21.84;85.36
32492;BME280;20605;49.742;18.802;2023-06-14T12:37:49;97714.83;;;22.02;84.33
32492;BME280;20605;49.742;18.802;2023-06-14T12:40:15;97708.11;;;22.04;84.16
32492;BME280;20605;49.742;18.802;2023-06-14T12:42:41;97706.21;;;21.88;83.55
32492;BME280;20605;49.742;18.802;2023-06-14T12:45:08;97702.25;;;21.64;84.56
32492;BME280;20605;49.742;18.802;2023-06-14T12:47:34;97701.48;;;21.53;84.93
32492;BME280;20605;49.742;18.802;2023-06-14T12:49:59;97699.98;;;21.27;84.57
32492;BME280;20605;49.742;18.802;2023-06-14T12:52:25;97697.04;;;21.00;84.53
32492;BME280;20605;49.742;18.802;2023-06-14T12:54:51;97701.61;;;20.77;84.83
32492;BME280;20605;49.742;18.802;2023-06-14T12:57:16;97696.52;;;20.75;85.22
32492;BME280;20605;49.742;18.802;2023-06-14T12:59:42;97694.95;;;20.88;85.21
32492;BME280;20605;49.742;18.802;2023-06-14T13:02:15;97694.41;;;21.05;84.78